sensor_id;sensor_type;location;lat;lon;timestamp;P1;durP1;ratioP1;P2;durP2;ratioP2
4274;SDS011;2151;50.988;11.068;2023-06-19T00:01:24;119.57;;;9.83;;
4274;SDS011;2151;50.988;11.068;2023-06-19T00:03:51;118.87;;;10.23;;
4274;SDS011;2151;50.988;11.068;2023-06-19T00:06:17;119.20;;;10.97;;
4274;SDS011;2151;50.988;11.068;2023-06-19T00:08:44;118.63;;;9.97;;
4274;SDS011;2151;50.988;11.068;2023-06-19T00:11:10;117.60;;;9.83;;
4274;SDS011;2151;50.988;11.068;2023-06-19T00:13:37;118.40;;;10.77;;
4274;SDS011;2151;50.988;11.068;2023-06-19T00:16:03;120.47;;;10.80;;
4274;SDS011;2151;50.988;11.068;2023-06-19T00:18:30;118.47;;;9.40;;
4274;SDS011;2151;50.988;11.068;2023-06-19T00:20:56;119.13;;;10.37;;
4274;SDS011;2151;50.988;11.068;2023-06-19T00:23:23;118.87;;;9.80;;
4274;SDS011;2151;50.988;11.068;2023-06-19T00:25:50;118.63;;;9.93;;
4274;SDS011;2151;50.988;11.068;2023-06-19T00:28:16;117.70;;;10.40;;
4274;SDS011;2151;50.988;11.068;2023-06-19T00:30:46;120.27;;;10.03;;
4274;SDS011;2151;50.988;11.068;2023-06-19T00:33:12;119.10;;;10.20;;
4274;SDS011;2151;50.988;11.068;2023-06-19T00:35:38;117.97;;;9.47;;
4274;SDS011;2151;50.988;11.068;2023-06-19T00:38:05;117.80;;;10.70;;
4274;SDS011;2151;50.988;11.068;2023-06-19T00:40:32;119.57;;;10.43;;
4274;SDS011;2151;50.988;11.068;2023-06-19T00:42:59;120.13;;;11.03;;
4274;SDS011;2151;50.988;11.068;2023-06-19T00:45:26;119.67;;;10.10;;
4274;SDS011;2151;50.988;11.068;2023-06-19T00:47:53;119.07;;;9.80;;
4274;SDS011;2151;50.988;11.068;2023-06-19T00:50:23;118.37;;;10.60;;
4274;SDS011;2151;50.988;11.068;2023-06-19T00:52:50;119.10;;;10.43;;
4274;SDS011;2151;50.988;11.068;2023-06-19T00:55:17;119.77;;;10.60;;
4274;SDS011;2151;50.988;11.068;2023-06-19T00:57:43;121.40;;;10.00;;
4274;SDS011;2151;50.988;11.068;2023-06-19T01:00:11;119.40;;;9.73;;
4274;SDS011;2151;50.988;11.068;2023-06-19T01:02:39;119.33;;;10.70;;
4274;SDS011;2151;50.988;11.068;2023-06-19T01:05:06;121.90;;;10.17;;
4274;SDS011;2151;50.988;11.068;2023-06-19T01:10:02;119.47;;;10.07;;
4274;SDS011;2151;50.988;11.068;2023-06-19T01:12:32;122.10;;;10.67;;
4274;SDS011;2151;50.988;11.068;2023-06-19T01:15:03;120.47;;;10.40;;
4274;SDS011;2151;50.988;11.068;2023-06-19T01:17:31;122.77;;;10.77;;
4274;SDS011;2151;50.988;11.068;2023-06-19T01:19:58;119.47;;;10.73;;
4274;SDS011;2151;50.988;11.068;2023-06-19T01:22:28;119.73;;;10.43;;
4274;SDS011;2151;50.988;11.068;2023-06-19T01:24:55;118.57;;;10.50;;
4274;SDS011;2151;50.988;11.068;2023-06-19T01:27:22;119.60;;;10.67;;
4274;SDS011;2151;50.988;11.068;2023-06-19T01:29:49;120.83;;;10.63;;
4274;SDS011;2151;50.988;11.068;2023-06-19T01:32:20;119.80;;;11.17;;
4274;SDS011;2151;50.988;11.068;2023-06-19T01:34:48;119.87;;;10.70;;
4274;SDS011;2151;50.988;11.068;2023-06-19T01:37:16;117.77;;;10.23;;
4274;SDS011;2151;50.988;11.068;2023-06-19T01:39:43;120.57;;;10.63;;
4274;SDS011;2151;50.988;11.068;2023-06-19T01:42:10;120.40;;;10.80;;
4274;SDS011;2151;50.988;11.068;2023-06-19T01:44:37;122.07;;;11.10;;
4274;SDS011;2151;50.988;11.068;2023-06-19T01:47:07;119.30;;;10.60;;
4274;SDS011;2151;50.988;11.068;2023-06-19T01:49:34;121.07;;;10.20;;
4274;SDS011;2151;50.988;11.068;2023-06-19T01:52:01;119.27;;;10.90;;
4274;SDS011;2151;50.988;11.068;2023-06-19T01:54:27;118.70;;;9.97;;
4274;SDS011;2151;50.988;11.068;2023-06-19T01:56:53;117.20;;;10.07;;
4274;SDS011;2151;50.988;11.068;2023-06-19T01:59:20;120.77;;;10.60;;
4274;SDS011;2151;50.988;11.068;2023-06-19T02:01:47;119.37;;;10.50;;
4274;SDS011;2151;50.988;11.068;2023-06-19T02:04:13;123.50;;;11.27;;
4274;SDS011;2151;50.988;11.068;2023-06-19T02:06:40;120.00;;;11.00;;
4274;SDS011;2151;50.988;11.068;2023-06-19T02:09:06;120.20;;;10.27;;
4274;SDS011;2151;50.988;11.068;2023-06-19T02:11:34;119.50;;;10.57;;
4274;SDS011;2151;50.988;11.068;2023-06-19T02:14:00;118.90;;;10.03;;
4274;SDS011;2151;50.988;11.068;2023-06-19T02:16:27;121.93;;;11.03;;
4274;SDS011;2151;50.988;11.068;2023-06-19T02:18:53;122.90;;;11.83;;
4274;SDS011;2151;50.988;11.068;2023-06-19T02:21:19;122.73;;;10.90;;
4274;SDS011;2151;50.988;11.068;2023-06-19T02:23:46;120.50;;;12.13;;
4274;SDS011;2151;50.988;11.068;2023-06-19T02:26:12;120.37;;;11.00;;
4274;SDS011;2151;50.988;11.068;2023-06-19T02:28:39;119.90;;;11.30;;
4274;SDS011;2151;50.988;11.068;2023-06-19T02:31:05;118.90;;;11.40;;
4274;SDS011;2151;50.988;11.068;2023-06-19T02:33:32;121.00;;;10.90;;
4274;SDS011;2151;50.988;11.068;2023-06-19T02:35:58;120.07;;;11.33;;
4274;SDS011;2151;50.988;11.068;2023-06-19T02:38:26;122.70;;;10.83;;
4274;SDS011;2151;50.988;11.068;2023-06-19T02:40:52;130.40;;;11.20;;
4274;SDS011;2151;50.988;11.068;2023-06-19T02:43:19;118.20;;;10.17;;
4274;SDS011;2151;50.988;11.068;2023-06-19T02:45:45;122.27;;;11.20;;
4274;SDS011;2151;50.988;11.068;2023-06-19T02:48:12;120.87;;;10.90;;
4274;SDS011;2151;50.988;11.068;2023-06-19T02:50:39;123.17;;;11.77;;
4274;SDS011;2151;50.988;11.068;2023-06-19T02:53:05;120.80;;;11.47;;
4274;SDS011;2151;50.988;11.068;2023-06-19T02:55:31;120.20;;;10.80;;
4274;SDS011;2151;50.988;11.068;2023-06-19T02:57:58;120.40;;;11.13;;
4274;SDS011;2151;50.988;11.068;2023-06-19T03:00:24;122.33;;;11.10;;
4274;SDS011;2151;50.988;11.068;2023-06-19T03:02:54;119.03;;;10.67;;
4274;SDS011;2151;50.988;11.068;2023-06-19T03:05:20;119.47;;;10.90;;
4274;SDS011;2151;50.988;11.068;2023-06-19T03:07:46;121.30;;;11.40;;
4274;SDS011;2151;50.988;11.068;2023-06-19T03:10:13;120.23;;;11.07;;
4274;SDS011;2151;50.988;11.068;2023-06-19T03:12:39;121.37;;;10.90;;
4274;SDS011;2151;50.988;11.068;2023-06-19T03:15:06;130.43;;;10.50;;
4274;SDS011;2151;50.988;11.068;2023-06-19T03:17:32;120.67;;;11.20;;
4274;SDS011;2151;50.988;11.068;2023-06-19T03:19:59;121.97;;;10.90;;
4274;SDS011;2151;50.988;11.068;2023-06-19T03:22:25;120.70;;;10.90;;
4274;SDS011;2151;50.988;11.068;2023-06-19T03:24:52;120.27;;;10.97;;
4274;SDS011;2151;50.988;11.068;2023-06-19T03:27:18;118.37;;;11.10;;
4274;SDS011;2151;50.988;11.068;2023-06-19T03:29:45;122.70;;;11.90;;
4274;SDS011;2151;50.988;11.068;2023-06-19T03:32:11;120.47;;;10.70;;
4274;SDS011;2151;50.988;11.068;2023-06-19T03:34:37;122.40;;;10.50;;
4274;SDS011;2151;50.988;11.068;2023-06-19T03:37:04;119.00;;;10.90;;
4274;SDS011;2151;50.988;11.068;2023-06-19T03:39:31;124.23;;;12.30;;
4274;SDS011;2151;50.988;11.068;2023-06-19T03:41:57;119.77;;;11.20;;
4274;SDS011;2151;50.988;11.068;2023-06-19T03:44:23;118.57;;;10.40;;
4274;SDS011;2151;50.988;11.068;2023-06-19T03:46:50;118.67;;;10.63;;
4274;SDS011;2151;50.988;11.068;2023-06-19T03:49:17;119.67;;;11.40;;
4274;SDS011;2151;50.988;11.068;2023-06-19T03:51:44;119.13;;;10.60;;
4274;SDS011;2151;50.988;11.068;2023-06-19T03:54:10;118.77;;;11.13;;
4274;SDS011;2151;50.988;11.068;2023-06-19T03:56:37;121.20;;;11.13;;
4274;SDS011;2151;50.988;11.068;2023-06-19T03:59:03;122.67;;;11.80;;
4274;SDS011;2151;50.988;11.068;2023-06-19T04:01:30;120.20;;;11.97;;
4274;SDS011;2151;50.988;11.068;2023-06-19T04:03:56;122.57;;;11.40;;
4274;SDS011;2151;50.988;11.068;2023-06-19T04:06:23;118.97;;;11.50;;
4274;SDS011;2151;50.988;11.068;2023-06-19T04:08:49;119.40;;;11.37;;
4274;SDS011;2151;50.988;11.068;2023-06-19T04:11:16;121.10;;;10.87;;
4274;SDS011;2151;50.988;11.068;2023-06-19T04:13:42;121.77;;;11.70;;
4274;SDS011;2151;50.988;11.068;2023-06-19T04:16:08;120.40;;;11.50;;
4274;SDS011;2151;50.988;11.068;2023-06-19T04:18:35;120.90;;;12.03;;
4274;SDS011;2151;50.988;11.068;2023-06-19T04:21:01;120.67;;;12.33;;
4274;SDS011;2151;50.988;11.068;2023-06-19T04:23:28;122.00;;;12.13;;
4274;SDS011;2151;50.988;11.068;2023-06-19T04:25:54;120.87;;;11.23;;
4274;SDS011;2151;50.988;11.068;2023-06-19T04:28:21;124.47;;;11.80;;
4274;SDS011;2151;50.988;11.068;2023-06-19T04:30:47;123.40;;;12.43;;
4274;SDS011;2151;50.988;11.068;2023-06-19T04:33:14;120.83;;;11.60;;
4274;SDS011;2151;50.988;11.068;2023-06-19T04:35:40;121.23;;;11.73;;
4274;SDS011;2151;50.988;11.068;2023-06-19T04:38:07;123.13;;;12.63;;
4274;SDS011;2151;50.988;11.068;2023-06-19T04:40:34;122.13;;;12.10;;
4274;SDS011;2151;50.988;11.068;2023-06-19T04:43:01;132.27;;;12.10;;
4274;SDS011;2151;50.988;11.068;2023-06-19T04:45:28;124.10;;;12.20;;
4274;SDS011;2151;50.988;11.068;2023-06-19T04:47:55;119.77;;;11.10;;
4274;SDS011;2151;50.988;11.068;2023-06-19T04:50:21;121.30;;;11.80;;
4274;SDS011;2151;50.988;11.068;2023-06-19T04:52:48;121.47;;;11.10;;
4274;SDS011;2151;50.988;11.068;2023-06-19T04:55:17;121.93;;;13.20;;
4274;SDS011;2151;50.988;11.068;2023-06-19T04:57:43;120.77;;;11.77;;
4274;SDS011;2151;50.988;11.068;2023-06-19T05:00:10;121.87;;;12.57;;
4274;SDS011;2151;50.988;11.068;2023-06-19T05:02:39;122.67;;;12.30;;
4274;SDS011;2151;50.988;11.068;2023-06-19T05:05:09;121.50;;;11.93;;
4274;SDS011;2151;50.988;11.068;2023-06-19T05:07:36;120.80;;;11.53;;
4274;SDS011;2151;50.988;11.068;2023-06-19T05:10:02;121.27;;;11.97;;
4274;SDS011;2151;50.988;11.068;2023-06-19T05:12:29;121.60;;;11.93;;
4274;SDS011;2151;50.988;11.068;2023-06-19T05:14:55;120.30;;;11.40;;
4274;SDS011;2151;50.988;11.068;2023-06-19T05:17:22;123.70;;;11.80;;
4274;SDS011;2151;50.988;11.068;2023-06-19T05:19:48;121.37;;;11.63;;
4274;SDS011;2151;50.988;11.068;2023-06-19T05:22:14;120.27;;;11.47;;
4274;SDS011;2151;50.988;11.068;2023-06-19T05:24:41;124.50;;;11.33;;
4274;SDS011;2151;50.988;11.068;2023-06-19T05:27:08;122.27;;;12.37;;
4274;SDS011;2151;50.988;11.068;2023-06-19T05:29:35;120.77;;;11.77;;
4274;SDS011;2151;50.988;11.068;2023-06-19T05:32:01;120.00;;;10.90;;
4274;SDS011;2151;50.988;11.068;2023-06-19T05:34:28;122.13;;;11.23;;
4274;SDS011;2151;50.988;11.068;2023-06-19T05:36:54;123.80;;;11.90;;
4274;SDS011;2151;50.988;11.068;2023-06-19T05:39:21;126.40;;;11.07;;
4274;SDS011;2151;50.988;11.068;2023-06-19T05:41:47;120.07;;;11.17;;
4274;SDS011;2151;50.988;11.068;2023-06-19T05:44:14;121.77;;;11.47;;
4274;SDS011;2151;50.988;11.068;2023-06-19T05:46:43;118.60;;;10.70;;
4274;SDS011;2151;50.988;11.068;2023-06-19T05:49:09;118.40;;;11.10;;
4274;SDS011;2151;50.988;11.068;2023-06-19T05:51:36;119.90;;;11.20;;
4274;SDS011;2151;50.988;11.068;2023-06-19T05:54:03;118.40;;;11.50;;
4274;SDS011;2151;50.988;11.068;2023-06-19T05:56:30;118.57;;;11.30;;
4274;SDS011;2151;50.988;11.068;2023-06-19T05:58:57;117.33;;;11.23;;
4274;SDS011;2151;50.988;11.068;2023-06-19T06:01:23;119.17;;;11.40;;
4274;SDS011;2151;50.988;11.068;2023-06-19T06:03:51;117.40;;;10.70;;
4274;SDS011;2151;50.988;11.068;2023-06-19T06:06:17;117.10;;;10.57;;
4274;SDS011;2151;50.988;11.068;2023-06-19T06:08:44;119.60;;;12.00;;
4274;SDS011;2151;50.988;11.068;2023-06-19T06:11:10;117.17;;;10.10;;
4274;SDS011;2151;50.988;11.068;2023-06-19T06:13:37;124.97;;;11.00;;
4274;SDS011;2151;50.988;11.068;2023-06-19T06:16:04;117.90;;;11.73;;
4274;SDS011;2151;50.988;11.068;2023-06-19T06:18:38;120.47;;;11.70;;
4274;SDS011;2151;50.988;11.068;2023-06-19T06:21:04;118.30;;;11.20;;
4274;SDS011;2151;50.988;11.068;2023-06-19T06:23:31;117.57;;;11.70;;
4274;SDS011;2151;50.988;11.068;2023-06-19T06:25:58;118.00;;;11.93;;
4274;SDS011;2151;50.988;11.068;2023-06-19T06:28:29;117.47;;;11.30;;
4274;SDS011;2151;50.988;11.068;2023-06-19T06:30:55;123.23;;;11.20;;
4274;SDS011;2151;50.988;11.068;2023-06-19T06:33:22;117.37;;;11.37;;
4274;SDS011;2151;50.988;11.068;2023-06-19T06:35:48;118.83;;;11.70;;
4274;SDS011;2151;50.988;11.068;2023-06-19T06:38:15;117.40;;;10.40;;
4274;SDS011;2151;50.988;11.068;2023-06-19T06:40:41;120.90;;;11.33;;
4274;SDS011;2151;50.988;11.068;2023-06-19T06:43:09;117.67;;;11.50;;
4274;SDS011;2151;50.988;11.068;2023-06-19T06:45:35;119.93;;;11.43;;
4274;SDS011;2151;50.988;11.068;2023-06-19T06:48:04;121.80;;;11.43;;
4274;SDS011;2151;50.988;11.068;2023-06-19T06:50:32;118.77;;;11.30;;
4274;SDS011;2151;50.988;11.068;2023-06-19T06:52:58;118.77;;;11.10;;
4274;SDS011;2151;50.988;11.068;2023-06-19T06:55:25;122.47;;;10.97;;
4274;SDS011;2151;50.988;11.068;2023-06-19T06:57:51;119.70;;;11.43;;
4274;SDS011;2151;50.988;11.068;2023-06-19T07:00:18;119.97;;;11.53;;
4274;SDS011;2151;50.988;11.068;2023-06-19T07:02:44;118.00;;;11.07;;
4274;SDS011;2151;50.988;11.068;2023-06-19T07:05:14;119.17;;;11.17;;
4274;SDS011;2151;50.988;11.068;2023-06-19T07:07:41;122.57;;;11.53;;
4274;SDS011;2151;50.988;11.068;2023-06-19T07:10:07;123.50;;;10.80;;
4274;SDS011;2151;50.988;11.068;2023-06-19T07:12:34;124.77;;;12.30;;
4274;SDS011;2151;50.988;11.068;2023-06-19T07:15:02;119.33;;;12.17;;
4274;SDS011;2151;50.988;11.068;2023-06-19T07:17:28;120.63;;;11.80;;
4274;SDS011;2151;50.988;11.068;2023-06-19T07:19:55;117.77;;;11.50;;
4274;SDS011;2151;50.988;11.068;2023-06-19T07:22:22;128.73;;;12.77;;
4274;SDS011;2151;50.988;11.068;2023-06-19T07:24:48;130.87;;;11.90;;
4274;SDS011;2151;50.988;11.068;2023-06-19T07:27:14;126.50;;;13.60;;
4274;SDS011;2151;50.988;11.068;2023-06-19T07:29:41;118.37;;;11.50;;
4274;SDS011;2151;50.988;11.068;2023-06-19T07:32:07;123.60;;;11.83;;
4274;SDS011;2151;50.988;11.068;2023-06-19T07:34:34;119.67;;;11.63;;
4274;SDS011;2151;50.988;11.068;2023-06-19T07:37:00;126.40;;;12.07;;
4274;SDS011;2151;50.988;11.068;2023-06-19T07:39:27;123.70;;;12.97;;
4274;SDS011;2151;50.988;11.068;2023-06-19T07:41:53;125.17;;;12.40;;
4274;SDS011;2151;50.988;11.068;2023-06-19T07:44:19;121.80;;;12.60;;
4274;SDS011;2151;50.988;11.068;2023-06-19T07:46:47;119.37;;;12.00;;
4274;SDS011;2151;50.988;11.068;2023-06-19T07:49:13;122.40;;;12.97;;
4274;SDS011;2151;50.988;11.068;2023-06-19T07:51:40;128.07;;;12.20;;
4274;SDS011;2151;50.988;11.068;2023-06-19T07:54:06;128.27;;;13.50;;
4274;SDS011;2151;50.988;11.068;2023-06-19T07:56:35;125.87;;;14.00;;
4274;SDS011;2151;50.988;11.068;2023-06-19T07:59:01;129.57;;;14.70;;
4274;SDS011;2151;50.988;11.068;2023-06-19T08:01:31;125.37;;;13.40;;
4274;SDS011;2151;50.988;11.068;2023-06-19T08:03:57;121.87;;;12.57;;
4274;SDS011;2151;50.988;11.068;2023-06-19T08:06:24;135.83;;;14.27;;
4274;SDS011;2151;50.988;11.068;2023-06-19T08:08:50;130.73;;;14.03;;
4274;SDS011;2151;50.988;11.068;2023-06-19T08:11:17;123.77;;;13.53;;
4274;SDS011;2151;50.988;11.068;2023-06-19T08:13:44;120.17;;;12.63;;
4274;SDS011;2151;50.988;11.068;2023-06-19T08:16:10;123.53;;;12.47;;
4274;SDS011;2151;50.988;11.068;2023-06-19T08:18:37;135.10;;;12.83;;
4274;SDS011;2151;50.988;11.068;2023-06-19T08:21:03;132.47;;;13.70;;
4274;SDS011;2151;50.988;11.068;2023-06-19T08:23:30;143.17;;;12.80;;
4274;SDS011;2151;50.988;11.068;2023-06-19T08:25:57;131.53;;;12.70;;
4274;SDS011;2151;50.988;11.068;2023-06-19T08:28:23;121.60;;;11.30;;
4274;SDS011;2151;50.988;11.068;2023-06-19T08:30:50;119.03;;;12.67;;
4274;SDS011;2151;50.988;11.068;2023-06-19T08:33:16;120.93;;;12.33;;
4274;SDS011;2151;50.988;11.068;2023-06-19T08:35:43;128.37;;;11.40;;
4274;SDS011;2151;50.988;11.068;2023-06-19T08:38:10;119.10;;;11.23;;
4274;SDS011;2151;50.988;11.068;2023-06-19T08:40:36;124.80;;;12.40;;
4274;SDS011;2151;50.988;11.068;2023-06-19T08:43:03;118.17;;;11.27;;
4274;SDS011;2151;50.988;11.068;2023-06-19T08:45:29;122.53;;;12.33;;
4274;SDS011;2151;50.988;11.068;2023-06-19T08:47:59;117.87;;;10.43;;
4274;SDS011;2151;50.988;11.068;2023-06-19T08:50:26;117.57;;;11.57;;
4274;SDS011;2151;50.988;11.068;2023-06-19T08:52:54;114.53;;;11.17;;
4274;SDS011;2151;50.988;11.068;2023-06-19T08:55:20;115.80;;;11.10;;
4274;SDS011;2151;50.988;11.068;2023-06-19T08:57:47;112.60;;;10.23;;
4274;SDS011;2151;50.988;11.068;2023-06-19T09:00:22;113.37;;;10.50;;
4274;SDS011;2151;50.988;11.068;2023-06-19T09:02:50;113.80;;;9.70;;
4274;SDS011;2151;50.988;11.068;2023-06-19T09:05:36;114.10;;;10.57;;
4274;SDS011;2151;50.988;11.068;2023-06-19T09:08:06;112.40;;;10.00;;
4274;SDS011;2151;50.988;11.068;2023-06-19T09:10:39;113.97;;;10.33;;
4274;SDS011;2151;50.988;11.068;2023-06-19T09:13:05;115.27;;;10.93;;
4274;SDS011;2151;50.988;11.068;2023-06-19T09:15:35;115.00;;;9.70;;
4274;SDS011;2151;50.988;11.068;2023-06-19T09:18:06;112.80;;;10.53;;
4274;SDS011;2151;50.988;11.068;2023-06-19T09:20:40;113.13;;;10.80;;
4274;SDS011;2151;50.988;11.068;2023-06-19T09:23:10;113.70;;;10.83;;
4274;SDS011;2151;50.988;11.068;2023-06-19T09:25:50;111.97;;;10.50;;
4274;SDS011;2151;50.988;11.068;2023-06-19T09:28:18;111.67;;;10.17;;
4274;SDS011;2151;50.988;11.068;2023-06-19T09:30:52;116.77;;;9.50;;
4274;SDS011;2151;50.988;11.068;2023-06-19T09:33:19;118.87;;;10.00;;
4274;SDS011;2151;50.988;11.068;2023-06-19T09:35:45;110.87;;;8.90;;
4274;SDS011;2151;50.988;11.068;2023-06-19T09:38:12;109.80;;;9.60;;
4274;SDS011;2151;50.988;11.068;2023-06-19T09:40:38;110.80;;;9.00;;
4274;SDS011;2151;50.988;11.068;2023-06-19T09:43:05;112.57;;;10.17;;
4274;SDS011;2151;50.988;11.068;2023-06-19T09:45:33;108.20;;;8.40;;
4274;SDS011;2151;50.988;11.068;2023-06-19T09:48:00;109.87;;;7.93;;
4274;SDS011;2151;50.988;11.068;2023-06-19T09:50:26;110.37;;;8.23;;
4274;SDS011;2151;50.988;11.068;2023-06-19T09:52:54;108.67;;;7.67;;
4274;SDS011;2151;50.988;11.068;2023-06-19T09:55:21;106.27;;;7.63;;
4274;SDS011;2151;50.988;11.068;2023-06-19T09:57:50;108.40;;;7.43;;
4274;SDS011;2151;50.988;11.068;2023-06-19T10:00:17;111.57;;;7.27;;
4274;SDS011;2151;50.988;11.068;2023-06-19T10:02:49;107.77;;;7.20;;
4274;SDS011;2151;50.988;11.068;2023-06-19T10:05:16;106.77;;;7.80;;
4274;SDS011;2151;50.988;11.068;2023-06-19T10:07:45;108.57;;;7.47;;
4274;SDS011;2151;50.988;11.068;2023-06-19T10:10:22;110.10;;;7.77;;
4274;SDS011;2151;50.988;11.068;2023-06-19T10:12:49;109.83;;;8.67;;
4274;SDS011;2151;50.988;11.068;2023-06-19T10:17:46;108.30;;;8.10;;
4274;SDS011;2151;50.988;11.068;2023-06-19T10:20:47;113.80;;;7.97;;
4274;SDS011;2151;50.988;11.068;2023-06-19T10:23:13;105.67;;;7.00;;
4274;SDS011;2151;50.988;11.068;2023-06-19T10:25:45;115.40;;;6.90;;
4274;SDS011;2151;50.988;11.068;2023-06-19T10:28:16;107.57;;;7.30;;
4274;SDS011;2151;50.988;11.068;2023-06-19T10:30:42;106.10;;;7.13;;
4274;SDS011;2151;50.988;11.068;2023-06-19T10:33:09;113.27;;;6.70;;
4274;SDS011;2151;50.988;11.068;2023-06-19T10:35:39;104.53;;;6.30;;
4274;SDS011;2151;50.988;11.068;2023-06-19T10:38:07;106.80;;;7.30;;
4274;SDS011;2151;50.988;11.068;2023-06-19T10:40:34;106.10;;;6.30;;
4274;SDS011;2151;50.988;11.068;2023-06-19T10:43:01;107.17;;;7.27;;
4274;SDS011;2151;50.988;11.068;2023-06-19T10:45:27;104.20;;;6.80;;
4274;SDS011;2151;50.988;11.068;2023-06-19T10:47:55;105.67;;;6.80;;
4274;SDS011;2151;50.988;11.068;2023-06-19T10:50:22;104.47;;;6.17;;
4274;SDS011;2151;50.988;11.068;2023-06-19T10:52:52;105.27;;;6.50;;
4274;SDS011;2151;50.988;11.068;2023-06-19T10:55:21;105.73;;;6.20;;
4274;SDS011;2151;50.988;11.068;2023-06-19T10:57:48;106.60;;;6.40;;
4274;SDS011;2151;50.988;11.068;2023-06-19T11:02:51;103.90;;;6.13;;
4274;SDS011;2151;50.988;11.068;2023-06-19T11:05:20;104.93;;;6.30;;
4274;SDS011;2151;50.988;11.068;2023-06-19T11:07:58;105.37;;;6.87;;
4274;SDS011;2151;50.988;11.068;2023-06-19T11:10:25;105.33;;;7.50;;
4274;SDS011;2151;50.988;11.068;2023-06-19T11:12:57;106.27;;;7.60;;
4274;SDS011;2151;50.988;11.068;2023-06-19T11:15:33;105.83;;;7.27;;
4274;SDS011;2151;50.988;11.068;2023-06-19T11:18:00;104.10;;;7.00;;
4274;SDS011;2151;50.988;11.068;2023-06-19T11:20:27;107.40;;;7.30;;
4274;SDS011;2151;50.988;11.068;2023-06-19T11:22:55;103.37;;;6.87;;
4274;SDS011;2151;50.988;11.068;2023-06-19T11:25:22;102.97;;;6.40;;
4274;SDS011;2151;50.988;11.068;2023-06-19T11:27:50;104.87;;;6.47;;
4274;SDS011;2151;50.988;11.068;2023-06-19T11:30:29;102.67;;;6.67;;
4274;SDS011;2151;50.988;11.068;2023-06-19T11:32:57;102.77;;;6.10;;
4274;SDS011;2151;50.988;11.068;2023-06-19T11:35:23;110.07;;;6.67;;
4274;SDS011;2151;50.988;11.068;2023-06-19T11:37:50;103.00;;;6.20;;
4274;SDS011;2151;50.988;11.068;2023-06-19T11:40:17;102.70;;;6.27;;
4274;SDS011;2151;50.988;11.068;2023-06-19T11:42:49;106.23;;;6.30;;
4274;SDS011;2151;50.988;11.068;2023-06-19T11:45:17;103.43;;;5.90;;
4274;SDS011;2151;50.988;11.068;2023-06-19T11:47:47;101.50;;;6.50;;
4274;SDS011;2151;50.988;11.068;2023-06-19T11:50:14;102.60;;;6.23;;
4274;SDS011;2151;50.988;11.068;2023-06-19T11:52:42;103.30;;;5.93;;
4274;SDS011;2151;50.988;11.068;2023-06-19T11:55:09;108.80;;;6.27;;
4274;SDS011;2151;50.988;11.068;2023-06-19T11:57:36;102.30;;;6.63;;
4274;SDS011;2151;50.988;11.068;2023-06-19T12:00:03;104.03;;;6.33;;
4274;SDS011;2151;50.988;11.068;2023-06-19T12:02:33;102.80;;;6.30;;
4274;SDS011;2151;50.988;11.068;2023-06-19T12:05:00;107.50;;;6.87;;
4274;SDS011;2151;50.988;11.068;2023-06-19T12:07:27;103.73;;;6.77;;
4274;SDS011;2151;50.988;11.068;2023-06-19T12:09:53;105.40;;;6.70;;
4274;SDS011;2151;50.988;11.068;2023-06-19T12:12:20;103.20;;;6.50;;
4274;SDS011;2151;50.988;11.068;2023-06-19T12:14:47;103.17;;;6.77;;
4274;SDS011;2151;50.988;11.068;2023-06-19T12:17:13;104.87;;;6.20;;
4274;SDS011;2151;50.988;11.068;2023-06-19T12:19:40;105.00;;;6.40;;
4274;SDS011;2151;50.988;11.068;2023-06-19T12:22:06;105.00;;;6.73;;
4274;SDS011;2151;50.988;11.068;2023-06-19T12:24:33;103.17;;;6.83;;
4274;SDS011;2151;50.988;11.068;2023-06-19T12:26:59;103.17;;;6.37;;
4274;SDS011;2151;50.988;11.068;2023-06-19T12:29:26;109.63;;;7.40;;
4274;SDS011;2151;50.988;11.068;2023-06-19T12:31:52;111.07;;;7.33;;
4274;SDS011;2151;50.988;11.068;2023-06-19T12:34:24;105.10;;;7.17;;
4274;SDS011;2151;50.988;11.068;2023-06-19T12:36:57;104.70;;;7.37;;
4274;SDS011;2151;50.988;11.068;2023-06-19T12:39:23;103.07;;;6.30;;
4274;SDS011;2151;50.988;11.068;2023-06-19T12:41:51;103.40;;;6.40;;
4274;SDS011;2151;50.988;11.068;2023-06-19T12:44:18;104.90;;;6.40;;
4274;SDS011;2151;50.988;11.068;2023-06-19T12:46:44;102.07;;;6.07;;
4274;SDS011;2151;50.988;11.068;2023-06-19T12:49:11;103.33;;;6.57;;
4274;SDS011;2151;50.988;11.068;2023-06-19T12:51:37;104.00;;;6.17;;
4274;SDS011;2151;50.988;11.068;2023-06-19T12:54:04;107.47;;;6.73;;
4274;SDS011;2151;50.988;11.068;2023-06-19T12:56:30;108.13;;;6.57;;
4274;SDS011;2151;50.988;11.068;2023-06-19T12:58:57;104.90;;;7.00;;
4274;SDS011;2151;50.988;11.068;2023-06-19T13:01:23;102.60;;;6.60;;
4274;SDS011;2151;50.988;11.068;2023-06-19T13:03:50;102.87;;;6.80;;
4274;SDS011;2151;50.988;11.068;2023-06-19T13:06:17;104.60;;;6.67;;
4274;SDS011;2151;50.988;11.068;2023-06-19T13:08:45;103.07;;;6.80;;
4274;SDS011;2151;50.988;11.068;2023-06-19T13:11:13;106.47;;;6.90;;
4274;SDS011;2151;50.988;11.068;2023-06-19T13:13:39;107.20;;;6.00;;
4274;SDS011;2151;50.988;11.068;2023-06-19T13:16:06;101.07;;;6.20;;
4274;SDS011;2151;50.988;11.068;2023-06-19T13:18:32;104.90;;;7.30;;
4274;SDS011;2151;50.988;11.068;2023-06-19T13:21:00;101.37;;;5.87;;
4274;SDS011;2151;50.988;11.068;2023-06-19T13:23:26;102.90;;;6.70;;
4274;SDS011;2151;50.988;11.068;2023-06-19T13:25:53;103.30;;;6.30;;
4274;SDS011;2151;50.988;11.068;2023-06-19T13:28:19;101.60;;;6.30;;
4274;SDS011;2151;50.988;11.068;2023-06-19T13:30:46;102.23;;;6.73;;
4274;SDS011;2151;50.988;11.068;2023-06-19T13:33:12;102.17;;;6.00;;
4274;SDS011;2151;50.988;11.068;2023-06-19T13:35:39;102.37;;;6.30;;
4274;SDS011;2151;50.988;11.068;2023-06-19T13:38:05;102.20;;;6.23;;
4274;SDS011;2151;50.988;11.068;2023-06-19T13:40:32;102.80;;;6.00;;
4274;SDS011;2151;50.988;11.068;2023-06-19T13:42:59;102.83;;;6.90;;
4274;SDS011;2151;50.988;11.068;2023-06-19T13:45:26;103.17;;;6.77;;
4274;SDS011;2151;50.988;11.068;2023-06-19T13:47:52;107.40;;;6.27;;
4274;SDS011;2151;50.988;11.068;2023-06-19T13:50:21;104.37;;;6.57;;
4274;SDS011;2151;50.988;11.068;2023-06-19T13:52:50;104.47;;;7.00;;
4274;SDS011;2151;50.988;11.068;2023-06-19T13:55:16;102.90;;;6.10;;
4274;SDS011;2151;50.988;11.068;2023-06-19T13:57:43;103.47;;;6.73;;
4274;SDS011;2151;50.988;11.068;2023-06-19T14:00:10;103.03;;;6.40;;
4274;SDS011;2151;50.988;11.068;2023-06-19T14:02:37;104.60;;;6.40;;
4274;SDS011;2151;50.988;11.068;2023-06-19T14:05:05;105.60;;;6.30;;
4274;SDS011;2151;50.988;11.068;2023-06-19T14:07:32;104.30;;;6.13;;
4274;SDS011;2151;50.988;11.068;2023-06-19T14:09:59;103.30;;;6.30;;
4274;SDS011;2151;50.988;11.068;2023-06-19T14:12:25;105.53;;;6.50;;
4274;SDS011;2151;50.988;11.068;2023-06-19T14:14:52;106.40;;;6.23;;
4274;SDS011;2151;50.988;11.068;2023-06-19T14:17:18;107.07;;;6.50;;
4274;SDS011;2151;50.988;11.068;2023-06-19T14:19:45;102.57;;;6.20;;
4274;SDS011;2151;50.988;11.068;2023-06-19T14:22:11;103.13;;;6.10;;
4274;SDS011;2151;50.988;11.068;2023-06-19T14:24:40;103.90;;;6.00;;
4274;SDS011;2151;50.988;11.068;2023-06-19T14:27:07;102.60;;;6.30;;
4274;SDS011;2151;50.988;11.068;2023-06-19T14:29:34;105.47;;;6.63;;
4274;SDS011;2151;50.988;11.068;2023-06-19T14:32:00;105.57;;;6.50;;
4274;SDS011;2151;50.988;11.068;2023-06-19T14:34:27;108.43;;;7.17;;